createdAt,value
2022-10-10T00:01:23.129Z,77.35
2022-10-10T00:03:52.259Z,77.91
2022-10-10T00:06:21.325Z,78.12
2022-10-10T00:08:50.660Z,77.66
2022-10-10T00:11:19.915Z,77.86
2022-10-10T00:13:48.142Z,77.97
2022-10-10T00:16:17.003Z,78.24
2022-10-10T00:18:45.161Z,77.87
2022-10-10T00:21:14.668Z,78.34
2022-10-10T00:23:42.636Z,78.64
2022-10-10T00:26:13.736Z,79.03
2022-10-10T00:28:45.499Z,79.82
2022-10-10T00:31:13.322Z,79.75
2022-10-10T00:33:41.069Z,80.17
2022-10-10T00:36:10.809Z,80.18
2022-10-10T00:38:39.945Z,80.13
2022-10-10T00:41:08.585Z,80.18
2022-10-10T00:43:37.014Z,80.72
2022-10-10T00:46:05.049Z,80.85
2022-10-10T00:48:38.461Z,80.48
2022-10-10T00:51:09.692Z,81.20
2022-10-10T00:53:42.362Z,80.08
2022-10-10T00:56:11.688Z,79.98
2022-10-10T00:58:44.149Z,80.11
2022-10-10T01:01:12.217Z,80.23
2022-10-10T01:03:40.086Z,80.03
2022-10-10T01:06:08.140Z,81.09
2022-10-10T01:08:36.934Z,80.02
2022-10-10T01:11:19.661Z,80.57
2022-10-10T01:13:55.136Z,80.31
2022-10-10T01:16:30.466Z,81.09
2022-10-10T01:19:09.380Z,80.96
2022-10-10T01:21:47.038Z,81.03
2022-10-10T01:24:50.389Z,81.90
2022-10-10T01:27:31.276Z,81.72
2022-10-10T01:30:04.566Z,81.47
2022-10-10T01:32:38.363Z,81.76
2022-10-10T01:35:29.515Z,81.61
2022-10-10T01:38:06.572Z,81.21
2022-10-10T01:40:45.196Z,80.72
2022-10-10T01:43:13.833Z,81.51
2022-10-10T01:45:46.523Z,80.78
2022-10-10T01:48:15.252Z,81.50
2022-10-10T01:50:57.603Z,81.04
2022-10-10T01:53:32.163Z,81.18
2022-10-10T01:56:09.057Z,81.17
2022-10-10T01:58:52.717Z,82.18
2022-10-10T02:01:28.502Z,82.50
2022-10-10T02:04:10.500Z,81.20
2022-10-10T02:06:45.398Z,81.71
2022-10-10T02:09:18.815Z,81.62
2022-10-10T02:11:46.670Z,81.21
2022-10-10T02:14:19.476Z,81.84
2022-10-10T02:16:52.995Z,81.79
2022-10-10T02:19:23.783Z,80.74
2022-10-10T02:21:53.918Z,81.23
2022-10-10T02:24:24.801Z,81.47
2022-10-10T02:26:57.361Z,81.17
2022-10-10T02:29:30.109Z,82.34
2022-10-10T02:32:06.465Z,82.02
2022-10-10T02:34:37.739Z,82.18
2022-10-10T02:37:08.175Z,81.74
2022-10-10T02:39:40.114Z,81.99
2022-10-10T02:42:10.437Z,82.13
2022-10-10T02:44:39.981Z,82.27
2022-10-10T02:47:09.356Z,81.62
2022-10-10T02:49:37.395Z,81.36
2022-10-10T02:52:05.489Z,82.13
2022-10-10T02:54:33.628Z,81.51
2022-10-10T02:57:01.438Z,81.41
2022-10-10T02:59:29.175Z,81.46
2022-10-10T03:01:56.984Z,81.97
2022-10-10T03:04:26.646Z,81.45
2022-10-10T03:06:54.630Z,81.52
2022-10-10T03:09:22.439Z,81.84
2022-10-10T03:11:50.367Z,81.84
2022-10-10T03:14:18.142Z,81.95
2022-10-10T03:16:45.949Z,81.89
2022-10-10T03:19:13.717Z,81.35
2022-10-10T03:21:42.876Z,82.27
2022-10-10T03:24:10.634Z,81.50
2022-10-10T03:26:38.410Z,81.75
2022-10-10T03:29:06.395Z,82.29
2022-10-10T03:31:34.133Z,82.53
2022-10-10T03:34:02.087Z,82.56
2022-10-10T03:36:30.898Z,82.19
2022-10-10T03:39:00.116Z,82.17
2022-10-10T03:41:28.173Z,83.11
2022-10-10T03:43:56.161Z,83.18
2022-10-10T03:46:24.030Z,83.71
2022-10-10T03:48:51.913Z,82.91
2022-10-10T03:51:19.893Z,83.30
2022-10-10T03:53:47.656Z,83.97
2022-10-10T03:56:16.765Z,83.41
2022-10-10T03:58:44.582Z,83.06
2022-10-10T04:01:12.696Z,83.30
2022-10-10T04:03:40.934Z,82.74
2022-10-10T04:06:08.913Z,82.96
2022-10-10T04:08:36.682Z,83.12
2022-10-10T04:11:04.506Z,82.99
2022-10-10T04:13:33.654Z,83.41
2022-10-10T04:16:01.435Z,82.95
2022-10-10T04:18:29.229Z,83.07
2022-10-10T04:20:56.982Z,82.98
2022-10-10T04:23:24.784Z,83.45
2022-10-10T04:25:53.964Z,83.31
2022-10-10T04:28:21.827Z,83.04
2022-10-10T04:30:51.066Z,83.48
2022-10-10T04:33:18.880Z,83.63
2022-10-10T04:35:48.552Z,83.82
2022-10-10T04:38:16.358Z,83.29
2022-10-10T04:40:44.118Z,83.38
2022-10-10T04:43:11.942Z,83.84
2022-10-10T04:45:39.684Z,83.17
2022-10-10T04:48:08.817Z,83.63
2022-10-10T04:50:36.687Z,84.58
2022-10-10T04:53:04.723Z,84.36
2022-10-10T04:55:32.520Z,83.37
2022-10-10T04:58:00.315Z,83.84
2022-10-10T05:00:28.271Z,83.47
2022-10-10T05:02:56.021Z,84.01
2022-10-10T05:05:25.177Z,83.95
2022-10-10T05:07:55.519Z,83.52
2022-10-10T05:10:23.904Z,84.05
2022-10-10T05:12:52.056Z,84.98
2022-10-10T05:15:21.336Z,85.43
2022-10-10T05:17:49.206Z,84.95
2022-10-10T05:20:17.041Z,84.68
2022-10-10T05:22:46.256Z,84.49
2022-10-10T05:25:14.296Z,84.39
2022-10-10T05:27:42.228Z,84.86
2022-10-10T05:30:10.656Z,84.34
2022-10-10T05:32:38.747Z,85.11
2022-10-10T05:35:07.556Z,84.94
2022-10-10T05:37:35.607Z,84.80
2022-10-10T05:40:05.695Z,84.20
2022-10-10T05:42:33.516Z,84.65
2022-10-10T05:45:01.254Z,84.70
2022-10-10T05:47:29.073Z,84.36
2022-10-10T05:49:56.895Z,84.67
2022-10-10T05:52:24.700Z,84.44
2022-10-10T05:54:52.467Z,84.86
2022-10-10T05:57:21.606Z,84.64
2022-10-10T05:59:49.401Z,85.27
2022-10-10T06:02:17.189Z,85.30
2022-10-10T06:04:44.984Z,85.34
2022-10-10T06:07:12.783Z,85.67
2022-10-10T06:09:40.550Z,86.52
2022-10-10T06:12:08.544Z,86.45
2022-10-10T06:14:37.623Z,85.82
2022-10-10T06:17:05.375Z,85.98
2022-10-10T06:19:33.295Z,85.57
2022-10-10T06:22:01.347Z,86.02
2022-10-10T06:24:29.780Z,86.80
2022-10-10T06:26:57.494Z,86.76
2022-10-10T06:29:25.367Z,86.74
2022-10-10T06:31:54.448Z,86.81
2022-10-10T06:34:22.209Z,87.11
2022-10-10T06:36:50.721Z,86.93
2022-10-10T06:39:18.661Z,87.04
2022-10-10T06:41:46.495Z,86.83
2022-10-10T06:44:14.292Z,86.69
2022-10-10T06:46:42.474Z,86.69
2022-10-10T06:49:12.015Z,86.57
2022-10-10T06:51:40.708Z,86.31
2022-10-10T06:54:08.532Z,86.62
2022-10-10T06:56:36.266Z,86.40
2022-10-10T06:59:04.050Z,86.19
2022-10-10T07:01:31.880Z,86.54
2022-10-10T07:03:59.619Z,86.07
2022-10-10T07:06:32.515Z,86.49
2022-10-10T07:09:03.686Z,86.23
2022-10-10T07:11:31.477Z,86.24
2022-10-10T07:13:59.328Z,86.29
2022-10-10T07:16:27.181Z,86.21
2022-10-10T07:18:54.871Z,85.73
2022-10-10T07:21:22.735Z,85.91
2022-10-10T07:23:51.843Z,86.47
2022-10-10T07:26:22.273Z,86.23
2022-10-10T07:28:50.566Z,85.71
2022-10-10T07:31:18.314Z,85.49
2022-10-10T07:33:50.451Z,85.12
2022-10-10T07:36:19.736Z,84.93
2022-10-10T07:38:53.041Z,84.90
2022-10-10T07:41:21.906Z,84.53
2022-10-10T07:43:54.369Z,84.35
2022-10-10T07:46:22.159Z,84.21
2022-10-10T07:48:50.241Z,84.11
2022-10-10T07:51:18.390Z,84.46
2022-10-10T07:53:46.176Z,83.86
2022-10-10T07:56:15.272Z,84.00
2022-10-10T07:58:43.081Z,84.01
2022-10-10T08:01:12.483Z,84.03
2022-10-10T08:03:41.023Z,83.94
2022-10-10T08:06:13.099Z,84.35
2022-10-10T08:08:50.387Z,84.39
2022-10-10T08:11:22.283Z,83.69
2022-10-10T08:13:50.575Z,83.66
2022-10-10T08:16:18.644Z,83.29
2022-10-10T08:18:46.533Z,83.24
2022-10-10T08:21:16.126Z,83.39
2022-10-10T08:23:43.970Z,83.20
2022-10-10T08:26:14.292Z,83.40
2022-10-10T08:28:44.430Z,83.03
2022-10-10T08:31:14.428Z,82.97
2022-10-10T08:33:43.571Z,83.18
2022-10-10T08:36:13.211Z,83.47
2022-10-10T08:38:41.027Z,83.45
2022-10-10T08:41:11.605Z,83.08
2022-10-10T08:43:48.146Z,83.16
2022-10-10T08:46:20.941Z,82.96
2022-10-10T08:48:51.123Z,83.09
2022-10-10T08:51:26.043Z,83.03
2022-10-10T08:53:59.180Z,82.90
2022-10-10T08:56:31.498Z,83.04
2022-10-10T08:59:06.086Z,82.75
2022-10-10T09:01:36.675Z,82.27
2022-10-10T09:04:24.467Z,82.14
2022-10-10T09:07:09.103Z,82.01
2022-10-10T09:09:45.799Z,81.49
2022-10-10T09:12:26.676Z,81.21
2022-10-10T09:15:04.784Z,80.36
2022-10-10T09:17:39.284Z,80.60
2022-10-10T09:20:23.418Z,78.68
2022-10-10T09:22:56.720Z,78.45
2022-10-10T09:25:28.518Z,78.79
2022-10-10T09:28:02.486Z,76.36
2022-10-10T09:30:34.624Z,74.69
2022-10-10T09:33:09.150Z,75.72
2022-10-10T09:35:40.253Z,75.37
2022-10-10T09:38:24.980Z,75.26
2022-10-10T09:40:58.421Z,76.15
2022-10-10T09:43:32.718Z,76.24
2022-10-10T09:46:02.195Z,76.23
2022-10-10T09:48:33.657Z,75.54
2022-10-10T09:51:02.518Z,74.39
2022-10-10T09:53:30.413Z,74.00
2022-10-10T09:55:59.937Z,74.59
2022-10-10T09:58:34.793Z,75.05
2022-10-10T10:01:15.539Z,74.20
2022-10-10T10:03:43.906Z,74.76
2022-10-10T10:06:15.367Z,73.51
2022-10-10T10:08:47.982Z,73.94
2022-10-10T10:11:29.309Z,71.70
2022-10-10T10:13:59.738Z,72.54
2022-10-10T10:16:35.012Z,71.55
2022-10-10T10:19:03.375Z,71.41
2022-10-10T10:21:32.154Z,71.46
2022-10-10T10:24:01.556Z,71.89
2022-10-10T10:26:43.661Z,71.77
2022-10-10T10:29:30.295Z,70.95
2022-10-10T10:32:05.803Z,70.40
2022-10-10T10:34:52.073Z,70.07
2022-10-10T10:37:24.665Z,69.95
2022-10-10T10:40:15.299Z,68.97
2022-10-10T10:42:57.993Z,69.29
2022-10-10T10:45:34.058Z,68.37
2022-10-10T10:48:14.444Z,68.45
2022-10-10T10:50:50.220Z,69.33
2022-10-10T10:53:26.356Z,67.53
2022-10-10T10:56:06.824Z,68.06
2022-10-10T10:59:16.069Z,67.97
2022-10-10T11:01:56.142Z,67.96
2022-10-10T11:05:21.054Z,67.49
2022-10-10T11:07:44.076Z,67.18
2022-10-10T11:10:21.240Z,67.19
2022-10-10T11:12:58.009Z,67.18
2022-10-10T11:15:54.191Z,67.73
2022-10-10T11:18:25.181Z,67.88
2022-10-10T11:21:01.796Z,66.59
2022-10-10T11:23:33.738Z,67.61
2022-10-10T11:26:06.718Z,66.56
2022-10-10T11:28:42.487Z,67.30
2022-10-10T11:31:14.208Z,66.91
2022-10-10T11:33:45.459Z,67.18
2022-10-10T11:36:19.708Z,66.40
2022-10-10T11:38:52.465Z,66.64
2022-10-10T11:41:24.418Z,66.67
2022-10-10T11:43:56.835Z,66.72
2022-10-10T11:46:30.688Z,66.36
2022-10-10T11:49:08.615Z,67.06
2022-10-10T11:51:47.102Z,66.96
2022-10-10T11:54:28.938Z,65.96
2022-10-10T11:57:01.900Z,65.94
2022-10-10T11:59:36.187Z,66.63
2022-10-10T12:02:17.346Z,66.71
2022-10-10T12:04:45.385Z,67.35
2022-10-10T12:07:20.948Z,66.65
2022-10-10T12:09:55.213Z,67.16
2022-10-10T12:12:26.474Z,66.67
2022-10-10T12:14:56.337Z,67.08
2022-10-10T12:17:29.814Z,66.63
2022-10-10T12:20:08.956Z,66.42
2022-10-10T12:22:38.644Z,66.74
2022-10-10T12:25:22.593Z,66.94
2022-10-10T12:28:06.618Z,66.63
2022-10-10T12:30:34.585Z,67.14
2022-10-10T12:33:02.477Z,66.85
2022-10-10T12:35:41.949Z,66.00
2022-10-10T12:38:20.550Z,66.17
2022-10-10T12:41:10.358Z,66.77
2022-10-10T12:43:47.115Z,67.22
2022-10-10T12:46:22.155Z,66.84
2022-10-10T12:49:00.622Z,67.04
2022-10-10T12:51:30.882Z,66.90
2022-10-10T12:54:03.699Z,65.81
2022-10-10T12:56:38.840Z,66.11
2022-10-10T12:59:15.019Z,66.74
2022-10-10T13:01:46.866Z,67.22
2022-10-10T13:04:17.791Z,66.42
2022-10-10T13:06:47.468Z,66.54
2022-10-10T13:09:21.199Z,64.75
2022-10-10T13:11:59.885Z,65.07
2022-10-10T13:14:38.347Z,65.68
2022-10-10T13:17:24.365Z,65.10
2022-10-10T13:19:53.353Z,65.03
2022-10-10T13:22:21.981Z,64.97
2022-10-10T13:24:52.998Z,64.76
2022-10-10T13:27:23.558Z,64.75
2022-10-10T13:29:52.414Z,64.90
2022-10-10T13:32:23.484Z,64.36
2022-10-10T13:34:54.675Z,64.45
2022-10-10T13:37:22.991Z,64.20
2022-10-10T13:39:53.400Z,64.48
2022-10-10T13:42:39.951Z,64.34
2022-10-10T13:45:33.494Z,64.22
2022-10-10T13:48:21.819Z,64.03
2022-10-10T13:51:09.665Z,64.31
2022-10-10T13:53:46.331Z,64.11
2022-10-10T13:56:19.028Z,64.09
2022-10-10T13:58:50.128Z,64.78
2022-10-10T14:01:37.802Z,64.41
2022-10-10T14:04:18.932Z,63.97
2022-10-10T14:06:55.720Z,63.79
2022-10-10T14:09:30.617Z,63.28
2022-10-10T14:12:03.331Z,63.50
2022-10-10T14:14:36.010Z,63.20
2022-10-10T14:17:06.133Z,63.64
2022-10-10T14:19:34.254Z,63.95
2022-10-10T14:22:02.088Z,64.07
2022-10-10T14:24:29.921Z,64.43
2022-10-10T14:26:59.519Z,64.14
2022-10-10T14:29:27.326Z,64.28
2022-10-10T14:31:55.113Z,64.42
2022-10-10T14:34:22.888Z,64.45
2022-10-10T14:36:51.642Z,64.42
2022-10-10T14:39:21.082Z,64.43
2022-10-10T14:41:48.844Z,64.49
2022-10-10T14:44:18.070Z,64.39
2022-10-10T14:46:45.863Z,64.75
2022-10-10T14:49:19.658Z,64.05
2022-10-10T14:51:48.141Z,64.59
2022-10-10T14:54:16.336Z,64.41
2022-10-10T14:57:08.925Z,64.22
2022-10-10T14:59:47.218Z,63.35
2022-10-10T15:02:21.136Z,63.52
2022-10-10T15:04:49.477Z,63.16
2022-10-10T15:07:20.161Z,63.21
2022-10-10T15:10:27.625Z,62.59
2022-10-10T15:12:39.114Z,62.90
2022-10-10T15:15:09.898Z,62.89
2022-10-10T15:17:37.959Z,63.29
2022-10-10T15:20:07.967Z,63.29
2022-10-10T15:22:36.296Z,63.31
2022-10-10T15:25:04.222Z,63.81
2022-10-10T15:27:32.788Z,63.88
2022-10-10T15:30:01.252Z,64.19
2022-10-10T15:32:30.452Z,64.11
2022-10-10T15:34:58.273Z,64.27
2022-10-10T15:37:27.875Z,64.51
2022-10-10T15:39:56.082Z,64.52
2022-10-10T15:42:24.258Z,64.99
2022-10-10T15:44:52.387Z,65.37
2022-10-10T15:47:20.735Z,65.93
2022-10-10T15:49:50.149Z,66.31
2022-10-10T15:52:18.889Z,66.72
2022-10-10T15:54:49.812Z,67.15
2022-10-10T15:57:19.063Z,67.66
2022-10-10T15:59:47.312Z,68.38
2022-10-10T16:02:15.150Z,68.43
2022-10-10T16:04:42.985Z,69.26
2022-10-10T16:07:30.406Z,70.49
2022-10-10T16:10:01.225Z,71.38
2022-10-10T16:12:29.189Z,72.36
2022-10-10T16:14:57.075Z,72.49
2022-10-10T16:17:25.151Z,74.53
2022-10-10T16:19:53.251Z,75.70
2022-10-10T16:22:22.425Z,77.36
2022-10-10T16:25:03.785Z,77.28
2022-10-10T16:27:38.537Z,77.53
2022-10-10T16:30:07.752Z,77.53
2022-10-10T16:32:40.880Z,78.08
2022-10-10T16:35:10.788Z,78.89
2022-10-10T16:37:40.471Z,78.40
2022-10-10T16:40:09.520Z,78.59
2022-10-10T16:42:37.386Z,78.81
2022-10-10T16:45:06.144Z,79.56
2022-10-10T16:47:34.080Z,79.50
2022-10-10T16:50:01.880Z,79.75
2022-10-10T16:52:29.675Z,79.93
2022-10-10T16:54:59.088Z,80.36
2022-10-10T16:57:26.937Z,80.29
2022-10-10T16:59:54.707Z,80.73
2022-10-10T17:02:24.602Z,80.81
2022-10-10T17:04:53.195Z,81.83
2022-10-10T17:07:21.034Z,81.95
2022-10-10T17:09:48.784Z,82.19
2022-10-10T17:12:18.009Z,82.32
2022-10-10T17:14:45.842Z,82.22
2022-10-10T17:17:14.065Z,82.90
2022-10-10T17:19:42.033Z,82.88
2022-10-10T17:22:10.080Z,81.90
2022-10-10T17:24:37.911Z,81.65
2022-10-10T17:27:05.710Z,81.60
2022-10-10T17:29:35.019Z,81.03
2022-10-10T17:32:06.189Z,80.70
2022-10-10T17:34:34.744Z,80.16
2022-10-10T17:37:02.787Z,80.18
2022-10-10T17:39:30.963Z,79.36
2022-10-10T17:41:59.227Z,79.46
2022-10-10T17:44:27.043Z,79.50
2022-10-10T17:46:56.222Z,79.72
2022-10-10T17:49:24.011Z,78.97
2022-10-10T17:51:51.805Z,78.90
2022-10-10T17:54:20.036Z,79.33
2022-10-10T17:56:47.882Z,78.85
2022-10-10T17:59:15.726Z,79.42
2022-10-10T18:01:43.530Z,79.03
2022-10-10T18:04:15.686Z,78.89
2022-10-10T18:06:43.811Z,79.00
2022-10-10T18:09:11.752Z,78.68
2022-10-10T18:11:39.847Z,78.40
2022-10-10T18:14:07.994Z,79.09
2022-10-10T18:16:35.999Z,79.29
2022-10-10T18:19:05.009Z,78.77
2022-10-10T18:21:35.227Z,79.14
2022-10-10T18:24:03.108Z,78.72
2022-10-10T18:26:32.017Z,79.10
2022-10-10T18:29:00.247Z,78.68
2022-10-10T18:31:31.119Z,78.90
2022-10-10T18:33:58.988Z,78.87
2022-10-10T18:36:29.417Z,78.99
2022-10-10T18:39:01.097Z,78.67
2022-10-10T18:41:34.194Z,78.55
2022-10-10T18:44:02.970Z,78.94
2022-10-10T18:46:30.875Z,78.48
2022-10-10T18:48:59.690Z,78.02
2022-10-10T18:51:30.313Z,78.17
2022-10-10T18:54:03.468Z,78.19
2022-10-10T18:56:32.868Z,77.99
2022-10-10T18:59:02.813Z,78.48
2022-10-10T19:01:33.251Z,77.95
2022-10-10T19:04:01.409Z,77.92
2022-10-10T19:06:29.317Z,78.04
2022-10-10T19:08:58.732Z,77.89
2022-10-10T19:11:29.575Z,78.38
2022-10-10T19:13:59.289Z,78.27
2022-10-10T19:16:27.475Z,78.20
2022-10-10T19:18:58.597Z,78.20
2022-10-10T19:21:27.722Z,78.15
2022-10-10T19:23:55.980Z,78.35
2022-10-10T19:26:24.094Z,77.88
2022-10-10T19:28:53.503Z,78.04
2022-10-10T19:31:22.443Z,78.42
2022-10-10T19:33:52.931Z,79.15
2022-10-10T19:36:20.867Z,79.09
2022-10-10T19:38:48.780Z,78.85
2022-10-10T19:41:17.066Z,78.33
2022-10-10T19:43:48.558Z,78.13
2022-10-10T19:46:19.613Z,78.04
2022-10-10T19:48:47.445Z,78.54
2022-10-10T19:51:16.540Z,78.03
2022-10-10T19:53:45.707Z,78.24
2022-10-10T19:56:15.305Z,78.05
2022-10-10T19:58:43.814Z,78.49
2022-10-10T20:01:13.617Z,78.53
2022-10-10T20:03:43.691Z,78.36
2022-10-10T20:06:11.935Z,77.81
2022-10-10T20:08:39.960Z,78.16
2022-10-10T20:11:08.007Z,78.10
2022-10-10T20:13:36.071Z,77.51
2022-10-10T20:16:06.897Z,77.44
2022-10-10T20:18:36.319Z,77.26
2022-10-10T20:21:16.146Z,77.23
2022-10-10T20:23:46.152Z,77.31
2022-10-10T20:26:16.434Z,77.33
2022-10-10T20:28:44.798Z,77.36
2022-10-10T20:31:18.727Z,76.84
2022-10-10T20:33:46.979Z,77.25
2022-10-10T20:36:17.032Z,77.48
2022-10-10T20:38:45.375Z,77.47
2022-10-10T20:41:13.246Z,77.37
2022-10-10T20:43:41.018Z,77.22
2022-10-10T20:46:10.580Z,77.69
2022-10-10T20:48:39.054Z,76.83
2022-10-10T20:51:09.309Z,77.18
2022-10-10T20:53:41.788Z,77.00
2022-10-10T20:56:11.812Z,77.43
2022-10-10T20:58:40.956Z,77.53
2022-10-10T21:01:11.467Z,77.16
2022-10-10T21:03:40.043Z,76.68
2022-10-10T21:06:10.197Z,77.18
2022-10-10T21:08:39.935Z,76.76
2022-10-10T21:11:09.789Z,77.09
2022-10-10T21:13:39.619Z,77.24
2022-10-10T21:16:09.230Z,77.01
2022-10-10T21:18:37.432Z,77.38
2022-10-10T21:21:07.033Z,77.42
2022-10-10T21:23:37.145Z,77.50
2022-10-10T21:26:07.757Z,77.24
2022-10-10T21:28:36.576Z,77.36
2022-10-10T21:31:04.989Z,77.51
2022-10-10T21:33:33.337Z,77.70
2022-10-10T21:36:01.784Z,77.96
2022-10-10T21:38:31.268Z,77.61
2022-10-10T21:41:07.279Z,77.33
2022-10-10T21:43:35.995Z,77.56
2022-10-10T21:46:04.852Z,77.68
2022-10-10T21:48:33.401Z,77.66
2022-10-10T21:51:01.959Z,77.55
2022-10-10T21:53:30.300Z,77.77
2022-10-10T21:55:58.155Z,77.86
2022-10-10T21:58:27.409Z,77.32
2022-10-10T22:00:55.281Z,77.64
2022-10-10T22:03:23.312Z,77.81
2022-10-10T22:05:51.126Z,78.08
2022-10-10T22:08:18.911Z,77.88
2022-10-10T22:10:46.722Z,77.93
2022-10-10T22:13:14.509Z,77.88
2022-10-10T22:15:43.746Z,78.38
2022-10-10T22:18:14.138Z,78.00
2022-10-10T22:20:41.902Z,78.17
2022-10-10T22:23:09.687Z,77.89
2022-10-10T22:25:37.456Z,77.81
2022-10-10T22:28:06.388Z,77.90
2022-10-10T22:30:34.349Z,77.92
2022-10-10T22:33:03.530Z,77.67
2022-10-10T22:35:31.432Z,77.67
2022-10-10T22:37:59.312Z,78.04
2022-10-10T22:40:27.746Z,78.02
2022-10-10T22:42:55.494Z,78.17
2022-10-10T22:45:24.007Z,78.17
2022-10-10T22:47:51.981Z,78.00
2022-10-10T22:50:21.413Z,78.11
2022-10-10T22:52:49.288Z,78.14
2022-10-10T22:55:18.674Z,77.99
2022-10-10T22:57:47.085Z,78.07
2022-10-10T23:00:16.320Z,77.83
2022-10-10T23:02:44.061Z,78.18
2022-10-10T23:05:11.885Z,78.01
2022-10-10T23:07:41.069Z,78.35
2022-10-10T23:10:10.099Z,78.33
2022-10-10T23:12:38.676Z,78.18
2022-10-10T23:15:07.209Z,78.16
2022-10-10T23:17:36.012Z,78.53
2022-10-10T23:20:03.895Z,78.21
2022-10-10T23:22:31.854Z,77.99
2022-10-10T23:25:00.983Z,78.50
2022-10-10T23:27:28.890Z,78.40
2022-10-10T23:29:56.759Z,78.40
2022-10-10T23:32:29.138Z,78.18
2022-10-10T23:34:57.369Z,78.48
2022-10-10T23:37:25.594Z,78.72
2022-10-10T23:39:53.384Z,79.06
2022-10-10T23:42:22.473Z,78.95
2022-10-10T23:44:50.224Z,79.35
2022-10-10T23:47:18.244Z,78.49
2022-10-10T23:49:46.052Z,79.06
2022-10-10T23:52:13.839Z,78.51
2022-10-10T23:54:42.353Z,78.56
2022-10-10T23:57:10.151Z,78.46
2022-10-10T23:59:39.240Z,78.65
